Time;durP1;ratioP1;P1;durP2;ratioP2;P2;SDS_P1;SDS_P2;PMS_P1;PMS_P2;Temp;Humidity;BMP_temperature;BMP_pressure;BME280_temperature;BME280_humidity;BME280_pressure;Samples;Min_cycle;Max_cycle;Signal;HPM_P1;HPM_P2
2023/10/16 00:01:09;;;;;;;2.60;1.43;;;;;;;12.15;79.22;95058.06;5016354;28;20237;-81
2023/10/16 00:03:41;;;;;;;2.83;1.40;;;;;;;12.10;78.94;95063.13;5015895;28;20291;-80
2023/10/16 00:06:07;;;;;;;1.53;1.40;;;;;;;12.22;78.59;95065.09;5010956;28;20239;-81
2023/10/16 00:08:36;;;;;;;1.47;1.33;;;;;;;12.12;78.95;95066.34;5014829;28;20233;-80
2023/10/16 00:11:03;;;;;;;2.10;1.50;;;;;;;12.22;78.15;95072.97;5046320;28;20233;-81
2023/10/16 00:13:30;;;;;;;1.40;1.30;;;;;;;12.03;78.13;95078.06;4997088;28;20229;-69
2023/10/16 00:15:56;;;;;;;2.50;1.30;;;;;;;11.98;78.77;95080.50;5010751;28;20233;-68
2023/10/16 00:18:25;;;;;;;1.63;1.50;;;;;;;12.05;78.14;95072.59;5013616;28;20245;-68
2023/10/16 00:20:52;;;;;;;3.30;1.40;;;;;;;12.02;78.17;95059.91;5044511;28;20233;-69
2023/10/16 00:23:18;;;;;;;1.50;1.40;;;;;;;11.94;78.13;95076.66;4997367;28;20687;-67
2023/10/16 00:25:44;;;;;;;1.50;1.40;;;;;;;11.96;78.11;95084.34;5008305;28;20319;-68
2023/10/16 00:28:10;;;;;;;1.73;1.57;;;;;;;12.13;77.83;95096.78;5009586;28;20696;-69
2023/10/16 00:30:37;;;;;;;1.50;1.40;;;;;;;12.03;77.59;95099.06;5028762;28;20706;-67
2023/10/16 00:33:10;;;;;;;1.57;1.47;;;;;;;12.31;76.51;95105.84;5012421;28;20236;-68
2023/10/16 00:35:37;;;;;;;1.40;1.30;;;;;;;12.14;76.86;95098.41;5027284;28;20753;-68
2023/10/16 00:38:04;;;;;;;1.70;1.60;;;;;;;12.12;77.52;95110.94;4996446;28;20859;-68
2023/10/16 00:40:32;;;;;;;1.40;1.30;;;;;;;11.92;77.85;95114.56;5045734;28;20249;-68
2023/10/16 00:43:20;;;;;;;1.60;1.50;;;;;;;11.66;78.78;95115.34;5035151;28;20610;-69
2023/10/16 00:45:53;;;;;;;1.87;1.60;;;;;;;11.73;78.87;95113.56;5009021;28;20378;-68
2023/10/16 00:48:18;;;;;;;2.33;1.47;;;;;;;11.68;78.86;95121.25;5028953;28;20694;-69
2023/10/16 00:50:45;;;;;;;2.17;1.50;;;;;;;11.87;78.00;95130.13;5015572;28;20286;-68
2023/10/16 00:53:13;;;;;;;2.23;1.80;;;;;;;11.83;77.61;95126.28;5017031;28;21002;-69
2023/10/16 00:55:39;;;;;;;1.80;1.70;;;;;;;11.97;77.30;95120.84;5035106;28;20237;-69
2023/10/16 00:58:07;;;;;;;1.70;1.60;;;;;;;11.63;78.22;95126.25;5017576;28;20821;-69
2023/10/16 01:00:36;;;;;;;2.47;1.90;;;;;;;11.62;78.44;95131.69;5010542;28;20236;-69
2023/10/16 01:03:04;;;;;;;3.33;2.00;;;;;;;11.56;78.53;95135.91;4999016;28;20236;-68
2023/10/16 01:05:33;;;;;;;2.87;1.93;;;;;;;11.62;78.24;95142.19;5016566;28;20233;-68
2023/10/16 01:08:00;;;;;;;4.33;2.30;;;;;;;11.67;78.33;95148.44;5032245;28;20229;-68
2023/10/16 01:10:26;;;;;;;3.23;2.27;;;;;;;11.56;78.73;95143.78;5023597;28;20233;-68
2023/10/16 01:12:55;;;;;;;2.97;2.30;;;;;;;11.81;77.81;95160.59;5034414;28;20237;-69
2023/10/16 01:15:23;;;;;;;3.00;2.70;;;;;;;11.55;78.66;95176.25;5031743;28;20217;-69
2023/10/16 01:17:50;;;;;;;3.30;3.00;;;;;;;11.35;79.11;95159.66;5016644;28;20287;-68
2023/10/16 01:20:18;;;;;;;4.30;3.10;;;;;;;11.27;80.03;95155.41;5016434;28;20286;-68
2023/10/16 01:22:45;;;;;;;3.80;3.37;;;;;;;11.25;79.99;95144.31;4997644;28;20242;-68
2023/10/16 01:25:11;;;;;;;5.27;3.60;;;;;;;11.22;nan;95147.38;5018117;28;20972;-69
2023/10/16 01:27:40;;;;;;;4.60;3.73;;;;;;;11.03;80.95;95142.06;5030784;28;20230;-69
2023/10/16 01:30:06;;;;;;;4.73;3.70;;;;;;;11.17;80.58;95148.94;5015071;28;20248;-70
2023/10/16 01:32:32;;;;;;;6.23;4.00;;;;;;;11.27;80.13;95142.31;5031877;28;20229;-69
2023/10/16 01:34:59;;;;;;;5.40;4.20;;;;;;;11.20;79.50;95133.63;5017496;28;20237;-69
2023/10/16 01:37:25;;;;;;;5.57;4.07;;;;;;;11.12;80.37;95152.16;5019614;28;20235;-70
2023/10/16 01:39:54;;;;;;;5.23;4.30;;;;;;;11.09;80.31;95157.78;5034323;28;20305;-68
2023/10/16 01:42:20;;;;;;;7.83;4.57;;;;;;;11.21;79.90;95156.22;5004982;28;20295;-70
2023/10/16 01:44:51;;;;;;;5.93;4.63;;;;;;;11.15;80.40;95166.69;5030808;28;20719;-69
2023/10/16 01:47:17;;;;;;;6.97;4.90;;;;;;;11.16;80.53;95178.75;5021868;28;20236;-69
2023/10/16 01:49:48;;;;;;;6.57;4.90;;;;;;;10.96;81.46;95177.91;5014815;28;20237;-68
2023/10/16 01:52:13;;;;;;;11.00;5.40;;;;;;;10.90;81.62;95191.75;5027801;28;20234;-68
2023/10/16 01:54:42;;;;;;;6.93;5.70;;;;;;;10.98;81.55;95192.41;5016491;28;20245;-68
2023/10/16 01:57:10;;;;;;;9.20;6.00;;;;;;;11.05;81.42;95208.16;5014567;28;20332;-68
2023/10/16 01:59:45;;;;;;;7.80;6.17;;;;;;;10.82;81.94;95204.00;5016424;28;20919;-69
2023/10/16 02:02:12;;;;;;;8.83;6.67;;;;;;;10.87;82.13;95210.50;5001122;28;20298;-66
2023/10/16 02:04:38;;;;;;;8.07;6.37;;;;;;;10.69;81.64;95219.66;5014785;28;20241;-68
2023/10/16 02:07:06;;;;;;;9.27;6.70;;;;;;;10.91;80.50;95227.41;5002320;28;20232;-68
2023/10/16 02:09:36;;;;;;;8.53;6.30;;;;;;;11.03;80.30;95238.97;5030939;28;20244;-69
2023/10/16 02:12:05;;;;;;;8.27;6.03;;;;;;;11.05;79.42;95253.50;5032188;28;20729;-69
2023/10/16 02:14:32;;;;;;;8.00;5.53;;;;;;;10.95;78.49;95236.50;5014166;28;20241;-69
2023/10/16 02:16:57;;;;;;;7.03;5.57;;;;;;;10.82;78.34;95240.66;5030532;28;20287;-69
2023/10/16 02:19:25;;;;;;;7.77;5.70;;;;;;;10.91;77.67;95232.66;5012352;28;20237;-69
2023/10/16 02:21:53;;;;;;;7.00;5.20;;;;;;;10.70;78.03;95244.00;4999424;28;20617;-68
2023/10/16 02:24:19;;;;;;;6.90;5.40;;;;;;;10.79;77.76;95251.50;5032840;28;20306;-68
2023/10/16 02:26:56;;;;;;;7.93;5.43;;;;;;;10.68;77.44;95259.91;5028855;28;20225;-69
2023/10/16 02:29:23;;;;;;;7.63;5.57;;;;;;;10.88;76.92;95253.97;5047908;28;20279;-68
2023/10/16 02:31:50;;;;;;;6.37;5.37;;;;;;;11.10;76.15;95258.97;5019640;28;20757;-69
2023/10/16 02:34:22;;;;;;;8.07;5.50;;;;;;;11.09;75.81;95252.09;5031082;28;20240;-68
2023/10/16 02:36:51;;;;;;;7.67;5.20;;;;;;;11.09;75.44;95251.28;4997312;28;20613;-69
2023/10/16 02:39:35;;;;;;;11.17;5.57;;;;;;;11.16;75.02;95259.97;5009265;28;20226;-69
2023/10/16 02:42:08;;;;;;;7.00;5.47;;;;;;;11.05;74.57;95263.97;5023320;28;20236;-69
2023/10/16 02:44:39;;;;;;;6.53;5.10;;;;;;;10.83;75.01;95265.03;4994141;28;20735;-69
2023/10/16 02:47:06;;;;;;;6.83;5.00;;;;;;;10.80;75.34;95262.78;4991431;28;20228;-68
2023/10/16 02:49:33;;;;;;;9.17;5.30;;;;;;;10.80;74.61;95266.22;5026483;28;20230;-67
2023/10/16 02:51:59;;;;;;;6.90;5.10;;;;;;;10.78;74.69;95254.34;5005148;28;20234;-67
2023/10/16 02:54:24;;;;;;;7.10;5.33;;;;;;;10.86;74.56;95256.81;5006590;28;20233;-68
2023/10/16 02:56:54;;;;;;;7.20;5.63;;;;;;;11.13;73.82;95266.41;5008550;28;20226;-68
2023/10/16 02:59:19;;;;;;;8.27;5.57;;;;;;;11.16;73.85;95262.59;5026679;28;20259;-68
2023/10/16 03:01:46;;;;;;;6.03;4.80;;;;;;;11.00;73.68;95266.34;5004947;28;20280;-68
2023/10/16 03:04:15;;;;;;;9.50;5.60;;;;;;;11.25;73.18;95280.56;5008016;28;20238;-68
2023/10/16 03:06:42;;;;;;;7.87;5.10;;;;;;;11.31;72.98;95284.25;5009543;28;20711;-69
2023/10/16 03:09:25;;;;;;;8.30;4.97;;;;;;;11.24;72.87;95286.03;5008446;28;20230;-70
2023/10/16 03:12:10;;;;;;;8.07;4.90;;;;;;;11.02;73.31;95300.19;4996696;28;20261;-69
2023/10/16 03:14:45;;;;;;;7.10;4.90;;;;;;;10.76;74.13;95293.81;4999109;28;20336;-69
2023/10/16 03:17:18;;;;;;;10.37;5.37;;;;;;;10.89;74.44;95308.00;4995220;28;20228;-68
2023/10/16 03:19:48;;;;;;;10.00;4.90;;;;;;;10.77;74.07;95312.94;5025029;28;20307;-68
2023/10/16 03:22:14;;;;;;;7.97;4.97;;;;;;;10.91;73.86;95326.94;5024682;28;20246;-82
2023/10/16 03:24:39;;;;;;;7.10;5.00;;;;;;;10.93;73.29;95330.97;5006443;28;20337;-81
2023/10/16 03:27:08;;;;;;;8.10;4.97;;;;;;;10.95;73.44;95328.97;5023211;28;20233;-79
2023/10/16 03:29:35;;;;;;;6.60;5.03;;;;;;;11.08;72.37;95330.88;5025902;28;20246;-79
2023/10/16 03:32:02;;;;;;;7.67;5.13;;;;;;;11.04;72.28;95322.56;5007840;28;20234;-83
2023/10/16 03:34:28;;;;;;;8.40;4.80;;;;;;;10.74;73.31;95327.22;5007899;28;20719;-84
2023/10/16 03:37:00;;;;;;;7.20;4.80;;;;;;;10.69;73.50;95316.50;4990812;28;20226;-81
2023/10/16 03:39:26;;;;;;;8.87;4.80;;;;;;;10.60;73.19;95307.16;4993533;28;20963;-78
2023/10/16 03:41:51;;;;;;;7.43;4.97;;;;;;;10.46;74.35;95320.34;5007490;28;20237;-81
2023/10/16 03:44:18;;;;;;;6.90;4.90;;;;;;;10.53;74.38;95303.69;5024971;28;20960;-78
2023/10/16 03:46:44;;;;;;;6.73;5.10;;;;;;;10.56;74.08;95311.16;5041231;28;20237;-79
2023/10/16 03:49:12;;;;;;;9.00;5.23;;;;;;;10.51;73.96;95325.81;5024529;28;20272;-82
2023/10/16 03:51:39;;;;;;;8.57;5.20;;;;;;;10.61;73.80;95321.06;5026972;28;20449;-79
2023/10/16 03:54:05;;;;;;;7.50;5.60;;;;;;;10.75;73.13;95330.63;5008562;28;20721;-78
2023/10/16 03:56:30;;;;;;;8.60;5.60;;;;;;;10.76;73.61;95335.69;5008416;28;20306;-80
2023/10/16 03:58:57;;;;;;;7.33;5.40;;;;;;;10.67;73.26;95334.22;5001588;28;20361;-82
2023/10/16 04:01:29;;;;;;;7.67;5.53;;;;;;;10.62;73.29;95343.63;5008895;28;20242;-78
2023/10/16 04:03:57;;;;;;;6.70;5.70;;;;;;;10.74;73.61;95332.47;5024133;28;20685;-80
2023/10/16 04:06:24;;;;;;;7.67;5.70;;;;;;;10.83;73.16;95335.75;5026268;28;20257;-79
2023/10/16 04:08:51;;;;;;;9.10;6.00;;;;;;;10.89;72.47;95342.03;5009611;28;20262;-79
2023/10/16 04:11:17;;;;;;;9.03;5.73;;;;;;;10.90;72.58;95348.88;5042154;28;20225;-79
2023/10/16 04:13:49;;;;;;;7.57;5.40;;;;;;;10.70;72.99;95357.38;5005220;28;20230;-81
2023/10/16 04:16:42;;;;;;;8.43;5.60;;;;;;;10.72;73.16;95357.22;5009947;28;20230;-78
2023/10/16 04:21:43;;;;;;;8.53;5.93;;;;;;;10.95;72.06;95365.63;5018032;28;20292;-79
2023/10/16 04:29:45;;;;;;;9.97;5.90;;;;;;;10.46;73.23;95397.03;5021764;28;20761;-82
2023/10/16 04:34:56;;;;;;;10.30;5.80;;;;;;;10.50;72.60;95418.41;5023539;28;20965;-79
2023/10/16 04:50:29;;;;;;;10.20;5.17;;;;;;;10.76;71.92;95419.47;5027897;28;20702;-68
2023/10/16 05:15:20;;;;;;;7.53;5.00;;;;;;;10.65;71.63;95492.47;5015499;28;20776;-69
2023/10/16 05:17:59;;;;;;;7.83;4.67;;;;;;;10.50;72.30;95471.56;5043985;28;20295;-69
2023/10/16 06:14:57;;;;;;;7.37;4.10;;;;;;;10.79;67.80;95570.94;5018715;28;20319;-67
2023/10/16 06:17:23;;;;;;;7.53;4.23;;;;;;;10.93;67.30;95573.72;4998370;28;20233;-69
2023/10/16 06:19:51;;;;;;;13.30;4.50;;;;;;;10.97;67.22;95583.63;5014401;28;20233;-69
2023/10/16 06:22:16;;;;;;;8.80;4.00;;;;;;;10.88;66.93;95578.69;5015527;28;20298;-69
2023/10/16 06:24:44;;;;;;;8.57;3.70;;;;;;;10.68;67.16;95588.94;5005949;28;20232;-68
2023/10/16 06:27:19;;;;;;;9.27;3.87;;;;;;;10.61;66.99;95581.00;5030189;28;20320;-68
2023/10/16 06:29:50;;;;;;;9.47;3.37;;;;;;;10.70;66.91;95592.19;5010197;28;20232;-68
2023/10/16 06:32:20;;;;;;;7.40;3.57;;;;;;;10.81;66.01;95587.31;4998561;28;20338;-69
2023/10/16 06:34:49;;;;;;;8.53;3.57;;;;;;;10.74;66.32;95593.44;5013509;28;20276;-69
2023/10/16 06:37:18;;;;;;;7.20;3.37;;;;;;;10.80;65.84;95583.03;5031234;28;20234;-69
2023/10/16 06:39:47;;;;;;;5.37;3.63;;;;;;;10.96;65.41;95594.31;5028133;28;20316;-68
2023/10/16 06:42:19;;;;;;;6.33;3.50;;;;;;;10.95;64.92;95596.09;4999792;28;20320;-69
2023/10/16 06:44:53;;;;;;;10.77;3.60;;;;;;;10.99;65.17;95589.50;5014027;28;20234;-70
2023/10/16 06:47:23;;;;;;;8.37;3.30;;;;;;;11.10;64.85;95591.66;4996384;28;20278;-70
2023/10/16 06:49:52;;;;;;;6.70;3.80;;;;;;;11.23;64.67;95598.81;5024428;28;20320;-68
2023/10/16 06:52:20;;;;;;;7.27;3.53;;;;;;;11.29;64.09;95611.19;5023463;28;20237;-69
2023/10/16 06:54:45;;;;;;;8.40;3.47;;;;;;;10.96;64.79;95612.63;4997832;28;20252;-69
2023/10/16 06:57:11;;;;;;;5.30;3.60;;;;;;;11.00;65.10;95609.47;4996912;28;20234;-68
2023/10/16 06:59:38;;;;;;;12.43;3.70;;;;;;;11.04;65.05;95615.13;5017878;28;20866;-69
2023/10/16 07:02:04;;;;;;;9.30;3.73;;;;;;;10.80;65.38;95613.66;4999506;28;20224;-69
2023/10/16 07:04:29;;;;;;;7.73;3.57;;;;;;;10.75;65.67;95621.25;5019533;28;20465;-68
2023/10/16 07:06:58;;;;;;;6.70;3.30;;;;;;;10.79;65.46;95625.13;4992361;28;20236;-68
2023/10/16 07:09:38;;;;;;;7.97;3.53;;;;;;;10.79;65.05;95619.91;5023677;28;20237;-68
2023/10/16 07:12:04;;;;;;;6.67;3.40;;;;;;;10.80;65.21;95630.19;5004494;28;20235;-69
2023/10/16 07:14:30;;;;;;;11.23;3.50;;;;;;;10.93;65.38;95620.84;5009424;28;20233;-69
2023/10/16 07:16:58;;;;;;;8.17;3.30;;;;;;;10.88;65.07;95621.41;4993925;28;20233;-69
2023/10/16 07:19:25;;;;;;;5.27;3.50;;;;;;;10.99;64.64;95617.50;5012715;28;20489;-69
2023/10/16 07:21:51;;;;;;;5.90;3.30;;;;;;;11.01;63.91;95618.13;5008957;28;20234;-69
2023/10/16 07:24:16;;;;;;;9.00;3.20;;;;;;;11.18;63.82;95616.88;5028134;28;20726;-68
2023/10/16 07:26:44;;;;;;;13.30;3.50;;;;;;;11.01;63.39;95610.28;5010208;28;20286;-68
2023/10/16 07:29:12;;;;;;;8.67;3.27;;;;;;;11.14;63.25;95615.66;5016018;28;20259;-69
2023/10/16 07:31:37;;;;;;;8.80;3.20;;;;;;;11.08;62.83;95609.34;5026717;28;20234;-69
2023/10/16 07:34:04;;;;;;;5.10;3.13;;;;;;;11.21;63.19;95606.88;5004368;28;20235;-69
2023/10/16 07:36:32;;;;;;;9.10;3.30;;;;;;;11.35;61.62;95611.22;5011362;28;20237;-68
2023/10/16 07:38:58;;;;;;;10.17;3.17;;;;;;;11.34;62.13;95609.59;5025364;28;20625;-68
2023/10/16 07:41:24;;;;;;;10.07;3.10;;;;;;;11.32;61.90;95610.81;5025547;28;20240;-69
2023/10/16 07:43:56;;;;;;;13.50;3.57;;;;;;;11.62;61.87;95612.28;4995756;28;20264;-70
2023/10/16 07:46:28;;;;;;;7.57;3.13;;;;;;;11.70;59.64;95612.16;5010085;28;20725;-70
2023/10/16 07:48:53;;;;;;;12.50;3.20;;;;;;;11.59;59.25;95612.66;5027515;28;20230;-70
2023/10/16 07:51:20;;;;;;;6.47;2.83;;;;;;;11.63;58.30;95613.09;5011258;28;20236;-70
2023/10/16 07:53:48;;;;;;;5.63;3.17;;;;;;;11.75;58.45;95611.63;5008946;28;20327;-69
2023/10/16 07:56:19;;;;;;;7.00;2.87;;;;;;;11.78;57.90;95609.41;5013257;28;20236;-70
2023/10/16 07:58:48;;;;;;;7.77;2.90;;;;;;;11.68;57.56;95614.19;5043042;28;20298;-69
2023/10/16 08:03:45;;;;;;;6.93;2.80;;;;;;;11.93;56.57;95599.66;5012189;28;20318;-69
2023/10/16 08:06:17;;;;;;;7.90;2.73;;;;;;;11.99;56.43;95600.69;4997328;28;20233;-71
2023/10/16 08:09:29;;;;;;;7.60;2.73;;;;;;;11.98;56.50;95594.66;5030688;28;20302;-69
2023/10/16 08:11:42;;;;;;;7.10;2.70;;;;;;;12.02;56.74;95595.06;5049159;28;20302;-69
2023/10/16 08:14:08;;;;;;;6.53;2.60;;;;;;;12.17;56.68;95593.16;5027762;28;20752;-70
2023/10/16 08:16:34;;;;;;;5.10;2.80;;;;;;;12.18;55.37;95595.59;5013169;28;20229;-71
2023/10/16 08:18:59;;;;;;;4.27;2.30;;;;;;;12.23;54.36;95602.88;5030363;28;20233;-68
2023/10/16 08:21:25;;;;;;;5.83;2.70;;;;;;;12.10;55.36;95605.44;5014009;28;20956;-69
2023/10/16 08:23:59;;;;;;;8.50;2.90;;;;;;;12.28;55.34;95610.16;5046820;28;20229;-68
2023/10/16 08:26:41;;;;;;;5.63;2.60;;;;;;;12.41;54.45;95600.56;5046468;28;20244;-70
2023/10/16 08:29:17;;;;;;;4.80;2.50;;;;;;;12.35;54.68;95613.63;5029190;28;20237;-70
2023/10/16 08:31:44;;;;;;;6.33;2.60;;;;;;;12.45;53.62;95607.06;5014128;28;20217;-68
2023/10/16 08:34:19;;;;;;;9.93;2.57;;;;;;;12.36;53.40;95615.28;5027507;28;20237;-69
2023/10/16 08:36:50;;;;;;;4.43;2.67;;;;;;;12.45;53.82;95616.75;5012909;28;20762;-69
2023/10/16 08:39:17;;;;;;;5.77;2.50;;;;;;;12.44;52.89;95613.28;5011569;28;20303;-69
2023/10/16 08:41:42;;;;;;;6.10;2.60;;;;;;;12.53;52.87;95616.59;5009847;28;20228;-70
2023/10/16 08:44:24;;;;;;;7.10;2.60;;;;;;;12.44;52.87;95612.50;5011342;28;20232;-69
2023/10/16 08:49:22;;;;;;;4.90;2.30;;;;;;;12.66;52.38;95611.38;5012280;28;20229;-69
2023/10/16 08:51:55;;;;;;;6.60;2.47;;;;;;;12.58;51.70;95603.69;5016192;28;20229;-70
2023/10/16 08:57:10;;;;;;;6.67;2.57;;;;;;;12.75;51.29;95591.84;5032067;28;20287;-70
2023/10/16 08:59:35;;;;;;;6.37;2.60;;;;;;;12.67;51.06;95603.34;5028409;28;20326;-69
2023/10/16 09:02:01;;;;;;;7.87;2.50;;;;;;;12.89;51.17;95609.28;5001396;28;20241;-68
2023/10/16 09:04:27;;;;;;;3.47;2.33;;;;;;;12.96;50.61;95609.28;5011948;28;20237;-69
2023/10/16 09:06:53;;;;;;;4.63;2.60;;;;;;;12.94;50.35;95611.31;5030852;28;20381;-70
2023/10/16 09:09:20;;;;;;;7.50;2.70;;;;;;;12.94;50.42;95606.88;5017668;28;20245;-69
2023/10/16 09:11:45;;;;;;;3.83;2.30;;;;;;;13.01;50.47;95615.59;5015623;28;20225;-69
2023/10/16 09:14:17;;;;;;;4.10;2.40;;;;;;;12.92;50.04;95611.50;5018435;28;20240;-69
2023/10/16 09:16:48;;;;;;;7.57;2.50;;;;;;;13.07;49.89;95612.19;5016143;28;20632;-69
2023/10/16 09:19:18;;;;;;;5.20;2.27;;;;;;;13.14;49.43;95597.25;5015780;28;20875;-69
2023/10/16 09:21:43;;;;;;;5.60;2.20;;;;;;;13.35;50.12;95609.44;5046167;28;20225;-69
2023/10/16 09:24:11;;;;;;;7.83;2.40;;;;;;;13.45;49.59;95600.16;5014992;28;20240;-70
2023/10/16 09:26:44;;;;;;;5.50;2.33;;;;;;;13.40;48.79;95602.56;5012852;28;20221;-68
2023/10/16 09:29:20;;;;;;;4.60;2.30;;;;;;;13.48;49.31;95602.38;5031064;28;20299;-70
2023/10/16 09:31:45;;;;;;;6.47;2.33;;;;;;;13.53;48.46;95604.41;5030422;28;20244;-69
2023/10/16 09:34:17;;;;;;;6.43;3.20;;;;;;;13.79;47.50;95600.97;5005998;28;20233;-70
2023/10/16 09:36:49;;;;;;;4.63;2.30;;;;;;;13.62;48.23;95594.50;5029827;28;20252;-70
2023/10/16 09:39:17;;;;;;;4.83;2.50;;;;;;;13.80;47.06;95592.09;5016347;28;20234;-68
2023/10/16 09:41:43;;;;;;;6.83;2.60;;;;;;;13.80;47.19;95584.19;5013247;28;20218;-69
2023/10/16 09:44:23;;;;;;;6.20;2.50;;;;;;;13.84;46.59;95582.75;5014733;28;20243;-70
2023/10/16 09:46:55;;;;;;;3.73;2.30;;;;;;;13.90;47.20;95587.22;5020622;28;20259;-69
2023/10/16 09:49:21;;;;;;;4.97;2.43;;;;;;;14.03;46.93;95579.31;5031026;28;20240;-69
2023/10/16 09:51:48;;;;;;;7.33;2.60;;;;;;;14.15;47.17;95575.84;5017355;28;20240;-69
2023/10/16 09:54:14;;;;;;;8.23;2.40;;;;;;;14.05;46.47;95572.84;5013842;28;20268;-68
2023/10/16 09:56:44;;;;;;;5.23;2.40;;;;;;;14.13;46.75;95566.53;5021342;28;21468;-68
2023/10/16 09:59:22;;;;;;;5.40;2.30;;;;;;;14.11;46.89;95564.09;5017856;28;20240;-69
2023/10/16 10:01:51;;;;;;;5.30;2.40;;;;;;;14.23;47.55;95574.03;5014007;28;20301;-69
2023/10/16 10:04:19;;;;;;;8.60;2.60;;;;;;;14.29;46.89;95567.91;4997381;28;20242;-70
2023/10/16 10:06:46;;;;;;;4.63;2.37;;;;;;;14.19;46.15;95570.97;5014882;28;20286;-69
2023/10/16 10:12:14;;;;;;;5.03;2.33;;;;;;;14.19;46.36;95557.81;5029540;28;20327;-69
2023/10/16 10:14:51;;;;;;;6.53;2.60;;;;;;;14.36;45.58;95559.03;5029621;28;21472;-68
2023/10/16 10:17:20;;;;;;;3.87;2.57;;;;;;;14.13;46.33;95558.66;5017406;28;20233;-64
2023/10/16 10:19:54;;;;;;;5.00;2.30;;;;;;;14.24;45.54;95559.81;4998702;28;20336;-68
2023/10/16 10:22:27;;;;;;;3.77;2.30;;;;;;;14.33;46.36;95559.44;5019360;28;20239;-70
2023/10/16 10:25:25;;;;;;;4.93;2.33;;;;;;;14.44;45.05;95548.28;5015012;28;20261;-69
2023/10/16 10:27:54;;;;;;;5.67;2.30;;;;;;;14.50;45.45;95542.16;5030647;28;20249;-69
2023/10/16 10:30:26;;;;;;;4.47;2.30;;;;;;;14.71;45.49;95549.00;5014918;28;20245;-70
2023/10/16 10:32:58;;;;;;;6.37;2.40;;;;;;;14.57;45.32;95548.22;4997893;28;20755;-69
2023/10/16 10:35:30;;;;;;;5.03;2.27;;;;;;;14.54;44.58;95532.03;5027207;28;20244;-68
2023/10/16 10:38:17;;;;;;;5.33;2.40;;;;;;;14.64;44.66;95532.41;4988991;28;20232;-68
2023/10/16 10:41:05;;;;;;;2.77;2.20;;;;;;;14.68;44.27;95526.50;5004203;28;20320;-69
2023/10/16 10:43:49;;;;;;;4.47;2.30;;;;;;;14.80;43.43;95518.72;5028267;28;20235;-69
2023/10/16 10:46:25;;;;;;;3.63;2.10;;;;;;;14.85;43.88;95519.69;5028948;28;20691;-68
2023/10/16 10:48:54;;;;;;;4.50;2.37;;;;;;;14.99;43.47;95520.47;5013408;28;20260;-68
2023/10/16 10:51:20;;;;;;;3.80;2.20;;;;;;;15.23;43.52;95529.44;5013077;28;20229;-69
2023/10/16 10:54:14;;;;;;;3.83;2.17;;;;;;;15.16;43.12;95518.13;5015491;28;20968;-70
2023/10/16 10:56:50;;;;;;;4.53;2.13;;;;;;;15.28;43.23;95517.25;5022758;28;20750;-80
2023/10/16 10:59:39;;;;;;;3.60;2.30;;;;;;;15.27;42.96;95507.69;4998476;28;20852;-81
2023/10/16 11:04:54;;;;;;;4.97;2.37;;;;;;;15.51;42.68;95498.22;5014369;28;21234;-81
2023/10/16 11:07:25;;;;;;;3.63;2.30;;;;;;;15.38;42.31;95509.63;5050726;28;20733;-79
2023/10/16 11:09:54;;;;;;;4.33;2.20;;;;;;;15.50;42.53;95507.13;5013767;28;20235;-81
2023/10/16 11:12:25;;;;;;;3.77;2.10;;;;;;;15.73;41.97;95501.28;5013646;28;20236;-80
2023/10/16 11:14:51;;;;;;;5.27;2.20;;;;;;;15.49;41.22;95497.63;5016308;28;20239;-80
2023/10/16 11:17:35;;;;;;;3.77;2.10;;;;;;;15.55;41.84;95499.38;4994742;28;20226;-79
2023/10/16 11:22:45;;;;;;;3.93;1.93;;;;;;;15.74;41.05;95503.69;5036125;28;20309;-82
2023/10/16 11:25:13;;;;;;;3.43;2.20;;;;;;;15.85;40.81;95492.44;5014974;28;20934;-81
2023/10/16 11:27:42;;;;;;;2.63;2.03;;;;;;;15.94;40.58;95485.84;5033682;28;20236;-81
2023/10/16 11:30:18;;;;;;;5.27;2.17;;;;;;;15.90;40.53;95492.59;5021817;28;20229;-80
2023/10/16 11:32:49;;;;;;;5.57;2.33;;;;;;;15.99;40.03;95479.91;5018634;28;20235;-80
2023/10/16 11:35:16;;;;;;;2.60;2.10;;;;;;;15.82;41.35;95489.41;5021392;28;20233;-80
2023/10/16 11:37:43;;;;;;;4.63;2.27;;;;;;;15.94;41.20;95480.56;5014697;28;20228;-81
2023/10/16 11:40:18;;;;;;;4.37;2.30;;;;;;;16.12;40.63;95482.41;5004426;28;20262;-80
2023/10/16 11:42:47;;;;;;;4.07;2.23;;;;;;;16.18;40.52;95492.91;5028951;28;20264;-79
2023/10/16 11:45:19;;;;;;;4.60;2.20;;;;;;;16.19;40.62;95481.28;5026088;28;20340;-81
2023/10/16 11:48:03;;;;;;;3.97;2.10;;;;;;;16.19;40.18;95477.88;5027995;28;20229;-81
2023/10/16 11:50:40;;;;;;;5.27;2.30;;;;;;;16.19;40.71;95488.44;5022327;28;20319;-77
2023/10/16 11:53:07;;;;;;;5.70;2.03;;;;;;;16.16;38.96;95489.69;5010898;28;20229;-80
2023/10/16 11:55:36;;;;;;;2.20;2.00;;;;;;;16.04;38.65;95488.78;5008289;28;20242;-80
2023/10/16 11:58:07;;;;;;;2.77;1.97;;;;;;;16.03;39.58;95486.34;5010097;28;20604;-80
2023/10/16 12:00:35;;;;;;;5.23;2.00;;;;;;;15.93;39.53;95473.66;5008486;28;20238;-80
2023/10/16 12:03:07;;;;;;;3.57;2.10;;;;;;;15.90;39.48;95471.47;5006337;28;20240;-80
2023/10/16 12:05:34;;;;;;;4.90;2.30;;;;;;;15.91;40.53;95466.97;5027646;28;20221;-81
2023/10/16 12:08:02;;;;;;;2.73;2.17;;;;;;;15.97;38.58;95466.94;5009530;28;20230;-82
2023/10/16 12:10:28;;;;;;;6.83;2.10;;;;;;;16.00;38.29;95471.75;5012303;28;20233;-80
2023/10/16 12:12:55;;;;;;;3.23;1.80;;;;;;;15.82;38.53;95468.28;4995532;28;20229;-78
2023/10/16 12:15:22;;;;;;;3.63;2.00;;;;;;;15.71;37.32;95469.81;5045639;28;20263;-79
2023/10/16 12:17:48;;;;;;;4.77;2.03;;;;;;;15.80;37.39;95471.16;5010311;28;20264;-80
2023/10/16 12:20:16;;;;;;;4.33;2.20;;;;;;;15.89;38.23;95461.09;5029903;28;20236;-80
2023/10/16 12:22:43;;;;;;;5.60;2.00;;;;;;;15.90;37.56;95462.72;5009204;28;20236;-83
2023/10/16 12:25:09;;;;;;;2.93;1.77;;;;;;;15.90;37.45;95465.38;4999702;28;20344;-79
2023/10/16 12:27:36;;;;;;;2.53;1.70;;;;;;;16.05;37.62;95460.53;5012267;28;20448;-79
2023/10/16 12:30:03;;;;;;;6.50;2.00;;;;;;;15.93;37.29;95452.53;5028486;28;20323;-79
2023/10/16 12:32:29;;;;;;;4.20;2.13;;;;;;;15.99;38.00;95459.59;5028128;28;20229;-82
2023/10/16 12:34:57;;;;;;;5.67;2.20;;;;;;;16.01;37.30;95459.34;4996158;28;20260;-81
2023/10/16 12:37:23;;;;;;;3.67;2.07;;;;;;;15.99;38.49;95449.03;5030987;28;20259;-79
2023/10/16 12:39:52;;;;;;;4.30;2.00;;;;;;;16.21;38.28;95446.75;4975001;28;1197447;-79
2023/10/16 12:42:18;;;;;;;2.90;2.03;;;;;;;16.32;37.75;95442.53;5034494;28;21241;-84
2023/10/16 12:44:44;;;;;;;5.07;2.10;;;;;;;16.11;37.80;95441.97;4999686;28;20229;-79
2023/10/16 12:47:11;;;;;;;5.03;2.00;;;;;;;16.03;37.82;95444.09;5018361;28;20284;-79
2023/10/16 12:49:37;;;;;;;5.23;2.20;;;;;;;16.05;37.30;95442.03;5018512;28;20320;-79
2023/10/16 12:52:03;;;;;;;7.27;2.20;;;;;;;16.10;38.59;95443.00;5004622;28;20229;-80
2023/10/16 12:54:28;;;;;;;8.63;2.20;;;;;;;16.08;37.74;95434.50;5017504;28;20225;-79
2023/10/16 12:56:54;;;;;;;4.30;2.10;;;;;;;16.14;37.87;95440.75;5028562;28;20234;-78
2023/10/16 12:59:20;;;;;;;7.07;1.87;;;;;;;16.12;35.79;95443.59;5015750;28;20267;-78
2023/10/16 13:01:49;;;;;;;6.00;1.60;;;;;;;16.11;33.33;95441.97;5017365;28;20234;-78
2023/10/16 13:04:18;;;;;;;2.57;1.50;;;;;;;16.09;33.30;95436.13;5016691;28;20236;-79
2023/10/16 13:06:44;;;;;;;4.83;1.50;;;;;;;15.96;30.05;95435.44;5049062;28;20286;-78
2023/10/16 13:09:17;;;;;;;1.60;1.40;;;;;;;15.97;28.71;95437.06;5016882;28;20332;-78
2023/10/16 13:11:44;;;;;;;3.80;1.30;;;;;;;16.09;29.21;95440.59;5033534;28;20232;-78
2023/10/16 13:14:11;;;;;;;6.23;1.50;;;;;;;16.10;27.93;95447.47;4998822;28;20245;-78
2023/10/16 13:16:39;;;;;;;1.63;1.40;;;;;;;16.12;28.27;95442.81;5016756;28;20221;-78
2023/10/16 13:19:04;;;;;;;4.07;1.43;;;;;;;16.04;28.57;95443.91;5014236;28;20240;-77
2023/10/16 13:21:33;;;;;;;4.33;1.50;;;;;;;16.04;28.21;95443.91;5016606;28;20233;-77
2023/10/16 13:24:13;;;;;;;3.20;1.50;;;;;;;15.91;28.23;95449.31;5049181;28;20317;-80
2023/10/16 13:26:41;;;;;;;4.10;1.60;;;;;;;16.01;28.95;95457.53;5028090;28;20252;-81
2023/10/16 13:29:11;;;;;;;2.87;1.50;;;;;;;16.01;28.46;95444.31;5033084;28;20742;-79
2023/10/16 13:31:40;;;;;;;3.20;1.50;;;;;;;16.06;28.93;95449.75;4999611;28;20221;-79
2023/10/16 13:34:13;;;;;;;7.13;1.60;;;;;;;16.01;29.01;95446.97;5017577;28;20287;-78
2023/10/16 13:36:42;;;;;;;4.03;1.70;;;;;;;16.01;28.92;95446.97;5015629;28;20292;-78
2023/10/16 13:39:10;;;;;;;4.87;1.60;;;;;;;16.08;29.04;95446.88;5012038;28;20233;-78
2023/10/16 13:41:51;;;;;;;7.30;1.73;;;;;;;16.06;29.11;95444.47;5013302;28;20241;-79